• Join FlightAware (Why Join?)
  • Login
  • US Flag 
09:08AM EDT


 

Airport Tracker/Info


-or-


 

Live Flight TrackerFlight Track Log ✈ USC105 ✈ 24-Apr-2013 ✈ KDPA - KYIP

Flight Track Log - Related Links

Times and Time Zones

All times are in EDT time to prevent confusion due to time zone crossing. See the USC105 flight status page for this flight to view local times or setup timezone preferences in your user account.

Time Position Orientation Groundspeed Altitude Reporting Facility
EDT Latitude Longitude Course Direction KTS MPH feet Rate Location/Type
05:31AM 41.8667 -88.2500 160° South 133 153 1,900  Level Chicago TRACON
05:32AM 41.8333 -88.2333 160° South 138 159 3,100 1,140 Climbing Chicago TRACON
05:33AM 41.8194 -88.2056 124° Southeast 135 155 4,100 1,020 Climbing Chicago Center
05:34AM 41.8014 -88.1628 120° Southeast 132 152 5,100 720 Climbing Chicago Center
05:35AM 41.8064 -88.1056 83° East 149 171 5,600 600 Climbing Chicago Center
05:36AM 41.8153 -88.0286 81° East 165 190 6,400 600 Climbing Chicago Center
05:37AM 41.8256 -87.9614 78° East 179 206 6,900 240 Climbing Chicago Center
05:38AM 41.8372 -87.8894 78° East 193 222 6,900  Level Chicago Center
05:38AM 41.8500 -87.8667 53° Northeast 202 232 6,900  Level Chicago TRACON
05:39AM 41.8500 -87.8000 90° East 199 229 6,900  Level Chicago TRACON
05:40AM 41.8667 -87.7167 75° East 196 226 6,900  Level Chicago TRACON
05:41AM 41.8667 -87.6500 90° East 199 229 6,900  Level Chicago TRACON
05:42AM 41.8728 -87.5994 81° East 198 228 6,900  Level Chicago Center
05:42AM 41.8833 -87.5667 67° East 198 228 6,900  Level Chicago TRACON
05:43AM 41.8833 -87.4833 90° East 199 229 6,900  Level Chicago TRACON
05:45AM 41.8975 -87.3797 80° East 200 230 6,900  Level Chicago Center
05:46AM 41.9056 -87.3075 81° East 197 227 6,900  Level Chicago Center
05:47AM 41.9125 -87.2347 83° East 197 227 6,900  Level Chicago Center
05:48AM 41.9211 -87.1611 81° East 199 229 6,900  Level Chicago Center
05:49AM 41.9283 -87.0883 82° East 198 228 6,900  Level Chicago Center
05:50AM 41.9350 -87.0153 83° East 198 228 6,900  Level Chicago Center
05:51AM 41.9422 -86.9439 82° East 195 224 6,900  Level Chicago Center
05:52AM 41.9497 -86.8722 82° East 194 223 6,900  Level Chicago Center
05:53AM 41.9567 -86.8000 83° East 196 226 6,900  Level Chicago Center
05:54AM 41.9642 -86.7292 82° East 193 222 6,900  Level Chicago Center
05:55AM 41.9725 -86.6478 82° East 196 226 6,900  Level Chicago Center
05:56AM 41.9792 -86.5761 83° East 194 223 7,000  Climbing Chicago Center
05:57AM 41.9867 -86.5031 82° East 197 227 7,000  Level Chicago Center
05:58AM 41.9936 -86.4300 83° East 198 228 7,000 -60 Level Chicago Center
05:59AM 42.0014 -86.3567 82° East 198 228 6,900  Descending Chicago Center
06:00AM 42.0081 -86.2825 83° East 199 229 7,000  Climbing Chicago Center
06:01AM 42.0156 -86.2103 82° East 196 226 7,000 -180 Level Chicago Center
06:02AM 42.0225 -86.1375 83° East 196 226 6,700 -360 Descending Chicago Center
06:03AM 42.0297 -86.0578 83° East 211 243 6,300 -480 Descending Chicago Center
06:04AM 42.0369 -85.9800 83° East 210 242 5,800 -480 Descending Chicago Center
06:05AM 42.0439 -85.9039 83° East 208 239 5,400 -420 Descending Chicago Center
06:06AM 42.0511 -85.8294 83° East 203 234 5,000 -240 Descending Chicago Center
06:07AM 42.0578 -85.7575 83° East 198 228 5,000  Level Chicago Center
06:08AM 42.0642 -85.6886 83° East 190 219 5,000  Level Chicago Center
06:09AM 42.0708 -85.6183 83° East 189 217 5,000  Level Chicago Center
06:10AM 42.0767 -85.5492 83° East 187 215 5,000  Level Chicago Center
06:11AM 42.0828 -85.4772 83° East 190 219 5,000  Level Chicago Center
06:12AM 42.0897 -85.4053 83° East 193 222 5,000 -60 Level Chicago Center
06:13AM 42.0961 -85.3333 83° East 194 223 4,900  Descending Chicago Center
06:14AM 42.1022 -85.2600 84° East 195 224 5,000  Climbing Chicago Center
06:15AM 42.1092 -85.1875 83° East 195 224 5,000  Level Chicago Center
06:16AM 42.1153 -85.1139 84° East 197 227 5,000  Level Chicago Center
06:17AM 42.1211 -85.0394 84° East 198 228 5,000  Level Chicago Center
06:18AM 42.1278 -84.9633 83° East 203 234 5,000  Level Chicago Center
06:19AM 42.1350 -84.8903 82° East 199 229 5,000  Level Chicago Center
06:20AM 42.1397 -84.8164 85° East 199 229 5,000  Level Chicago Center
06:21AM 42.1472 -84.7447 82° East 195 224 5,000 -60 Level Chicago Center
06:22AM 42.1517 -84.6722 85° East 194 223 4,900  Descending Chicago Center
06:23AM 42.1583 -84.6011 83° East 192 221 5,000 -120 Climbing Chicago Center
06:24AM 42.1625 -84.5517 83° East 192 221 4,800 -120 Descending FAA TRACON SMA TRACON (SMA)
06:24AM 42.1636 -84.5294 86° East 191 220 4,900 120 Climbing FAA TRACON SMA TRACON (SMA)
06:24AM 42.1656 -84.5075 83° East 192 221 4,900  Level FAA TRACON SMA TRACON (SMA)
06:25AM 42.1669 -84.4853 85° East 192 221 4,900  Level FAA TRACON SMA TRACON (SMA)
06:25AM 42.1692 -84.4575 84° East 194 223 4,900  Level FAA TRACON SMA TRACON (SMA)
06:25AM 42.1717 -84.4353 81° East 195 224 4,900  Level FAA TRACON SMA TRACON (SMA)
06:26AM 42.1739 -84.4128 82° East 195 224 4,900  Level FAA TRACON SMA TRACON (SMA)
06:26AM 42.1761 -84.3850 84° East 195 224 4,900  Level FAA TRACON SMA TRACON (SMA)
06:26AM 42.1775 -84.3622 85° East 196 226 4,900 -180 Level FAA TRACON SMA TRACON (SMA)
06:27AM 42.1789 -84.3397 85° East 195 224 4,800  Descending FAA TRACON SMA TRACON (SMA)
06:27AM 42.1808 -84.3117 85° East 196 226 4,900 120 Climbing FAA TRACON SMA TRACON (SMA)
06:27AM 42.1825 -84.2892 84° East 196 226 4,900 -180 Level FAA TRACON SMA TRACON (SMA)
06:28AM 42.1842 -84.2667 84° East 196 226 4,800  Descending FAA TRACON SMA TRACON (SMA)
06:28AM 42.1864 -84.2386 84° East 196 226 4,900  Climbing FAA TRACON SMA TRACON (SMA)
06:28AM 42.1886 -84.2161 82° East 196 226 4,800  Descending FAA TRACON SMA TRACON (SMA)
06:29AM 42.1925 -84.1656 84° East 196 226 4,900 60 Climbing FAA TRACON SMA TRACON (SMA)
06:29AM 42.1942 -84.1431 84° East 196 226 4,900  Level FAA TRACON SMA TRACON (SMA)
06:30AM 42.1967 -84.1206 81° East 196 226 4,900 -180 Level FAA TRACON SMA TRACON (SMA)
06:30AM 42.1986 -84.0925 85° East 196 226 4,800  Descending FAA TRACON SMA TRACON (SMA)
06:30AM 42.1997 -84.0700 86° East 196 226 4,900  Climbing FAA TRACON SMA TRACON (SMA)
06:31AM 42.2017 -84.0475 83° East 196 226 4,800 -180 Descending FAA TRACON SMA TRACON (SMA)
06:31AM 42.2042 -84.0194 83° East 196 226 4,800 120 Level FAA TRACON SMA TRACON (SMA)
06:31AM 42.2056 -83.9969 85° East 195 224 4,900 120 Climbing FAA TRACON SMA TRACON (SMA)
06:32AM 42.2042 -83.9750 95° East 192 221 4,900 -180 Level FAA TRACON SMA TRACON (SMA)
06:32AM 42.1989 -83.9481 105° East 185 213 4,800  Descending FAA TRACON SMA TRACON (SMA)
06:32AM 42.1894 -83.9306 126° Southeast 196 226 4,900 120 Climbing FAA TRACON SMA TRACON (SMA)
06:33AM 42.1789 -83.9142 131° Southeast 183 211 4,900 -780 Level FAA TRACON SMA TRACON (SMA)
06:33AM 42.1656 -83.8931 130° Southeast 195 224 4,400 -1,080 Descending FAA TRACON SMA TRACON (SMA)
06:33AM 42.1533 -83.8764 135° Southeast 199 229 4,200 -480 Descending FAA TRACON SMA TRACON (SMA)
06:34AM 42.1411 -83.8600 135° Southeast 200 230 4,100 -660 Descending FAA TRACON SMA TRACON (SMA)
06:34AM 42.1275 -83.8378 130° Southeast 199 229 3,800 -780 Descending FAA TRACON SMA TRACON (SMA)
06:34AM 42.1169 -83.8200 129° Southeast 196 226 3,600 -600 Descending FAA TRACON SMA TRACON (SMA)
06:35AM 42.1064 -83.8017 128° Southeast 199 229 3,400 -780 Descending FAA TRACON SMA TRACON (SMA)
06:35AM 42.0967 -83.7772 118° Southeast 198 228 3,100 -600 Descending FAA TRACON SMA TRACON (SMA)
06:35AM 42.0992 -83.7575 80° East 173 199 3,000 -180 Descending FAA TRACON SMA TRACON (SMA)
06:36AM 42.1031 -83.7386 74° East 170 196 3,000 -300 Level FAA TRACON SMA TRACON (SMA)
06:36AM 42.1106 -83.7183 63° Northeast 163 188 2,800 -600 Descending FAA TRACON SMA TRACON (SMA)
06:36AM 42.1189 -83.7036 53° Northeast 164 189 2,600 -600 Descending FAA TRACON SMA TRACON (SMA)
06:37AM 42.1267 -83.6883 56° Northeast 166 191 2,400 -480 Descending FAA TRACON SMA TRACON (SMA)
06:37AM 42.1375 -83.6717 49° Northeast 155 178 2,300 -180 Descending FAA TRACON SMA TRACON (SMA)
06:37AM 42.1461 -83.6597 46° Northeast 148 170 2,300  Level FAA TRACON SMA TRACON (SMA)
06:38AM 42.1550 -83.6489 42° Northeast 143 165 2,300  Level FAA TRACON SMA TRACON (SMA)
06:38AM 42.1647 -83.6350 47° Northeast 136 157 2,300 -180 Level FAA TRACON SMA TRACON (SMA)
06:38AM 42.1725 -83.6233 48° Northeast 135 155 2,200  Descending FAA TRACON SMA TRACON (SMA)
06:39AM 42.1800 -83.6125 47° Northeast 130 150 2,300 -180 Climbing FAA TRACON SMA TRACON (SMA)
06:39AM 42.1878 -83.5997 51° Northeast 114 131 2,100 -600 Descending FAA TRACON SMA TRACON (SMA)
06:39AM 42.1944 -83.5900 47° Northeast 122 140 1,900 -660 Descending FAA TRACON SMA TRACON (SMA)
06:40AM 42.2011 -83.5800 48° Northeast 114 131 1,700 -720 Descending FAA TRACON SMA TRACON (SMA)
06:40AM 42.2097 -83.5675 47° Northeast 116 133 1,400 -840 Descending FAA TRACON SMA TRACON (SMA)
06:40AM 42.2186 -83.5564 43° Northeast 114 131 1,100 -720 Descending FAA TRACON SMA TRACON (SMA)
06:41AM 42.2242 -83.5492 44° Northeast 114 131 1,000 -360 Descending FAA TRACON SMA TRACON (SMA)
06:41AM 42.2292 -83.5419 47° Northeast 113 130 900 -300 Descending FAA TRACON SMA TRACON (SMA)